Map

Track Data

SID SEASON NUMBER BASIN SUBBASIN NAME ISO_TIME NATURE LAT LON WMO_WIND WMO_PRES WMO_AGENCY TRACK_TYPE DIST2LAND LANDFALL IFLAG USA_AGENCY USA_ATCF_ID USA_LAT USA_LON USA_RECORD USA_STATUS USA_WIND USA_PRES USA_SSHS USA_R34_NE USA_R34_SE USA_R34_SW USA_R34_NW USA_R50_NE USA_R50_SE USA_R50_SW USA_R50_NW USA_R64_NE USA_R64_SE USA_R64_SW USA_R64_NW USA_POCI USA_ROCI USA_RMW USA_EYE TOKYO_LAT TOKYO_LON TOKYO_GRADE TOKYO_WIND TOKYO_PRES TOKYO_R50_DIR TOKYO_R50_LONG TOKYO_R50_SHORT TOKYO_R30_DIR TOKYO_R30_LONG TOKYO_R30_SHORT TOKYO_LAND CMA_LAT CMA_LON CMA_CAT CMA_WIND CMA_PRES HKO_LAT HKO_LON HKO_CAT HKO_WIND HKO_PRES NEWDELHI_LAT NEWDELHI_LON NEWDELHI_GRADE NEWDELHI_WIND NEWDELHI_PRES NEWDELHI_CI NEWDELHI_DP NEWDELHI_POCI REUNION_LAT REUNION_LON REUNION_TYPE REUNION_WIND REUNION_PRES REUNION_TNUM REUNION_CI REUNION_RMW REUNION_R34_NE REUNION_R34_SE REUNION_R34_SW REUNION_R34_NW REUNION_R50_NE REUNION_R50_SE REUNION_R50_SW REUNION_R50_NW REUNION_R64_NE REUNION_R64_SE REUNION_R64_SW REUNION_R64_NW BOM_LAT BOM_LON BOM_TYPE BOM_WIND BOM_PRES BOM_TNUM BOM_CI BOM_RMW BOM_R34_NE BOM_R34_SE BOM_R34_SW BOM_R34_NW BOM_R50_NE BOM_R50_SE BOM_R50_SW BOM_R50_NW BOM_R64_NE BOM_R64_SE BOM_R64_SW BOM_R64_NW BOM_ROCI BOM_POCI BOM_EYE BOM_POS_METHOD BOM_PRES_METHOD NADI_LAT NADI_LON NADI_CAT NADI_WIND NADI_PRES WELLINGTON_LAT WELLINGTON_LON WELLINGTON_WIND WELLINGTON_PRES DS824_LAT DS824_LON DS824_STAGE DS824_WIND DS824_PRES TD9636_LAT TD9636_LON TD9636_STAGE TD9636_WIND TD9636_PRES TD9635_LAT TD9635_LON TD9635_WIND TD9635_PRES TD9635_ROCI NEUMANN_LAT NEUMANN_LON NEUMANN_CLASS NEUMANN_WIND NEUMANN_PRES MLC_LAT MLC_LON MLC_CLASS MLC_WIND MLC_PRES USA_GUST BOM_GUST BOM_GUST_PER REUNION_GUST REUNION_GUST_PER USA_SEAHGT USA_SEARAD_NE USA_SEARAD_SE USA_SEARAD_SW USA_SEARAD_NW STORM_SPEED STORM_DIR
1979259N11078 1979 89 NI AS NOT_NAMED 1979-09-16 00:00:00 TS 10.5000 78.0000 main 0 0 O________OO___ jtwc_io IO041979 10.5000 78.0000 -1 10.5000 78.0000 TC 10.5000 78.0000 1 9 291
1979259N11078 1979 89 NI AS NOT_NAMED 1979-09-16 03:00:00 TS 10.6557 77.5946 main 0 0 P________PP___ IO041979 10.6551 77.6026 -1 10.6551 77.6026 TC 10.6568 77.5787 1 9 291
1979259N11078 1979 89 NI AS NOT_NAMED 1979-09-16 06:00:00 TS 10.8002 77.1885 main 0 0 O________OP___ jtwc_io IO041979 10.8000 77.2000 -1 10.8000 77.2000 TC 10.8006 77.1656 1 8 288
1979259N11078 1979 89 NI AS NOT_NAMED 1979-09-16 09:00:00 TS 10.9214 76.7849 main 0 0 P________PP___ IO041979 10.9225 76.7925 -1 10.9225 76.7925 TC 10.9191 76.7698 1 8 284
1979259N11078 1979 89 NI AS NOT_NAMED 1979-09-16 12:00:00 TS 11.0000 76.4000 main 0 0 O________OO___ jtwc_io IO041979 11.0000 76.4000 -1 11.0000 76.4000 TC 11.0000 76.4000 1 7 278
1979259N11078 1979 89 NI AS NOT_NAMED 1979-09-16 15:00:00 TS 11.0174 76.0437 main 0 0 P________PP___ IO041979 11.0075 76.0349 -1 11.0075 76.0349 TC 11.0372 76.0612 1 7 271
1979259N11078 1979 89 NI AS NOT_NAMED 1979-09-16 18:00:00 TS 11.0165 75.7140 main 21 21 O________OP___ jtwc_io IO041979 11.0000 75.7000 -1 11.0000 75.7000 TC 11.0496 75.7420 1 6 272
1979259N11078 1979 89 NI AS NOT_NAMED 1979-09-16 21:00:00 TS 11.0440 75.4139 main 54 46 P________PP___ IO041979 11.0349 75.4075 -1 11.0349 75.4075 TC 11.0622 75.4268 1 6 278
1979259N11078 1979 89 NI AS NOT_NAMED 1979-09-17 00:00:00 TS 11.1000 75.1000 main 70 70 O________OO___ jtwc_io IO041979 11.1000 75.1000 -1 11.1000 75.1000 TC 11.1000 75.1000 1 7 282
1979259N11078 1979 89 NI AS NOT_NAMED 1979-09-17 03:00:00 TS 11.1916 74.7033 main 103 103 P________PP___ IO041979 11.1850 74.7075 -1 11.1850 74.7075 TC 11.2046 74.6950 1 8 285
1979259N11078 1979 89 NI AS NOT_NAMED 1979-09-17 06:00:00 TS 11.3118 74.2943 main 125 125 O________OP___ jtwc_io IO041979 11.3000 74.3000 -1 11.3000 74.3000 TC 11.3354 74.2829 1 8 289
1979259N11078 1979 89 NI AS NOT_NAMED 1979-09-17 09:00:00 TS 11.4628 73.9098 main 152 152 P________PP___ IO041979 11.4575 73.9126 -1 11.4575 73.9126 TC 11.4734 73.9043 1 7 293
1979259N11078 1979 89 NI AS NOT_NAMED 1979-09-17 12:00:00 TS 11.6000 73.6000 main 176 176 O________OO___ jtwc_io IO041979 11.6000 73.6000 -1 11.6000 73.6000 TC 11.6000 73.6000 1 5 292
1979259N11078 1979 89 NI AS NOT_NAMED 1979-09-17 15:00:00 TS 11.6626 73.4142 main 190 190 P________PP___ IO041979 11.6574 73.4049 -1 11.6574 73.4049 TC 11.6728 73.4329 1 3 292
1979259N11078 1979 89 NI AS NOT_NAMED 1979-09-17 18:00:00 TS 11.7115 73.3132 main 200 195 O________OP___ jtwc_io IO041979 11.7000 73.3000 -1 11.7000 73.3000 TC 11.7346 73.3396 1 2 311
1979259N11078 1979 89 NI AS NOT_NAMED 1979-09-17 21:00:00 TS 11.7913 73.2638 main 195 195 P________PP___ IO041979 11.7850 73.2575 -1 11.7850 73.2575 TC 11.8041 73.2766 1 2 329
1979259N11078 1979 89 NI AS NOT_NAMED 1979-09-18 00:00:00 TS 11.9000 73.2000 main 200 200 O________OO___ jtwc_io IO041979 11.9000 73.2000 XX 15 -5 11.9000 73.2000 TC 15 11.9000 73.2000 1 3 316
1979259N11078 1979 89 NI AS NOT_NAMED 1979-09-18 03:00:00 TS 12.0374 73.0229 main 215 210 P________PP___ IO041979 12.0350 73.0150 XX 15 -5 12.0350 73.0150 TC 15 12.0422 73.0385 1 5 309
1979259N11078 1979 89 NI AS NOT_NAMED 1979-09-18 06:00:00 TS 12.2042 72.8192 main 227 224 O________OP___ jtwc_io IO041979 12.2000 72.8000 XX 15 -5 12.2000 72.8000 TC 15 12.2126 72.8576 1 5 314
1979259N11078 1979 89 NI AS NOT_NAMED 1979-09-18 09:00:00 TS 12.3955 72.6476 main 243 241 P________PP___ IO041979 12.3925 72.6350 XX 15 -5 12.3925 72.6350 TC 15 12.4016 72.6729 1 5 322
1979259N11078 1979 89 NI AS NOT_NAMED 1979-09-18 12:00:00 TS 12.6000 72.5000 main 250 247 O________OO___ jtwc_io IO041979 12.6000 72.5000 XX 15 -5 12.6000 72.5000 TC 15 12.6000 72.5000 1 5 328
1979259N11078 1979 89 NI AS NOT_NAMED 1979-09-18 15:00:00 TS 12.7976 72.3868 main 255 253 P________PP___ IO041979 12.8000 72.3999 XX 15 -5 12.8000 72.3999 TC 15 12.7928 72.3605 1 5 331
1979259N11078 1979 89 NI AS NOT_NAMED 1979-09-18 18:00:00 TS 12.9975 72.2783 main 262 262 O________OP___ jtwc_io IO041979 13.0000 72.3000 XX 15 -5 13.0000 72.3000 TC 15 12.9924 72.2349 1 5 329
1979259N11078 1979 89 NI AS NOT_NAMED 1979-09-18 21:00:00 TS 13.1986 72.1389 main 277 272 P________PP___ IO041979 13.2000 72.1500 XX 17 -5 13.2000 72.1500 TC 17 13.1959 72.1168 1 5 326
1979259N11078 1979 89 NI AS NOT_NAMED 1979-09-19 00:00:00 TS 13.4000 72.0000 main 275 269 O________OO___ jtwc_io IO041979 13.4000 72.0000 XX 20 -5 13.4000 72.0000 TC 20 13.4000 72.0000 1 5 329
1979259N11078 1979 89 NI AS NOT_NAMED 1979-09-19 03:00:00 TS 13.6027 71.8916 main 272 266 P________PP___ IO041979 13.6000 71.8999 XX 20 -5 13.6000 71.8999 TC 20 13.6081 71.8750 1 5 333
1979259N11078 1979 89 NI AS NOT_NAMED 1979-09-19 06:00:00 TS 13.8050 71.7833 main 268 263 O________OP___ jtwc_io IO041979 13.8000 71.8000 XX 20 -5 13.8000 71.8000 TC 20 13.8150 71.7500 1 5 329
1979259N11078 1979 89 NI AS NOT_NAMED 1979-09-19 09:00:00 TS 14.0098 71.6417 main 276 271 P________PP___ IO041979 14.0075 71.6500 XX 20 -5 14.0075 71.6500 TC 20 14.0144 71.6250 1 5 325
1979259N11078 1979 89 NI AS NOT_NAMED 1979-09-19 12:00:00 TS 14.2000 71.5000 main 277 273 O________OO___ jtwc_io IO041979 14.2000 71.5000 XX 20 -5 14.2000 71.5000 TC 20 14.2000 71.5000 1 4 324
1979259N11078 1979 89 NI AS NOT_NAMED 1979-09-19 15:00:00 TS 14.3476 71.3915 main 283 280 P________PP___ IO041979 14.3575 71.3999 XX 20 -5 14.3575 71.3999 TC 20 14.3278 71.3748 1 4 323
1979259N11078 1979 89 NI AS NOT_NAMED 1979-09-19 18:00:00 TS 14.4825 71.2832 main 285 285 O________OP___ jtwc_io IO041979 14.5000 71.3000 XX 20 -5 14.5000 71.3000 TC 20 14.4475 71.2496 1 4 318
1979259N11078 1979 89 NI AS NOT_NAMED 1979-09-19 21:00:00 TS 14.6112 71.1415 main 300 296 P________PP___ IO041979 14.6200 71.1500 XX 20 -5 14.6200 71.1500 TC 20 14.5934 71.1247 1 4 319
1979259N11078 1979 89 NI AS NOT_NAMED 1979-09-20 00:00:00 TS 14.8000 71.0000 main 303 299 O________OO___ jtwc_io IO041979 14.8000 71.0000 XX 20 -5 14.8000 71.0000 TC 20 14.8000 71.0000 1 6 335
1979259N11078 1979 89 NI AS NOT_NAMED 1979-09-20 03:00:00 TS 15.1239 70.8904 main 300 289 P________PP___ IO041979 15.1125 70.8999 XX 22 -5 15.1125 70.8999 TC 22 15.1469 70.8712 1 8 343
1979259N11078 1979 89 NI AS NOT_NAMED 1979-09-20 06:00:00 TS 15.5167 70.7810 main 289 285 O________OP___ jtwc_io IO041979 15.5000 70.8000 XX 25 -5 15.5000 70.8000 TC 25 15.5500 70.7429 1 9 344
1979259N11078 1979 89 NI AS NOT_NAMED 1979-09-20 09:00:00 TS 15.9377 70.6394 main 296 290 P________PP___ IO041979 15.9300 70.6501 XX 25 -5 15.9300 70.6501 TC 25 15.9531 70.6181 1 8 341
1979259N11078 1979 89 NI AS NOT_NAMED 1979-09-20 12:00:00 TS 16.3000 70.5000 main 299 298 O________OO___ jtwc_io IO041979 16.3000 70.5000 XX 25 -5 16.3000 70.5000 TC 25 16.3000 70.5000 1 6 337
1979259N11078 1979 89 NI AS NOT_NAMED 1979-09-20 15:00:00 TS 16.4884 70.4018 main 309 308 P________PP___ IO041979 16.4875 70.3924 XX 25 -5 16.4875 70.3924 TC 25 16.4901 70.4206 1 4 330
1979259N11078 1979 89 NI AS NOT_NAMED 1979-09-20 18:00:00 TS 16.6074 70.3147 main 317 314 O________OP___ jtwc_io IO041979 16.6000 70.3000 XX 25 -5 16.6000 70.3000 TC 25 16.6222 70.3441 1 3 326
1979259N11078 1979 89 NI AS NOT_NAMED 1979-09-20 21:00:00 TS 16.7327 70.2301 main 324 320 P________PP___ IO041979 16.7274 70.2224 XX 25 -5 16.7274 70.2224 TC 25 16.7432 70.2455 1 4 325
1979259N11078 1979 89 NI AS NOT_NAMED 1979-09-21 00:00:00 TS 16.9000 70.1000 main 328 325 O________OO___ jtwc_io IO041979 16.9000 70.1000 XX 25 -5 16.9000 70.1000 TC 25 16.9000 70.1000 1 6 323
1979259N11078 1979 89 NI AS NOT_NAMED 1979-09-21 03:00:00 TS 17.1801 69.8840 main 336 336 P________PP___ IO041979 17.1775 69.8800 XX 25 -5 17.1775 69.8800 TC 25 17.1853 69.8920 1 8 322
1979259N11078 1979 89 NI AS NOT_NAMED 1979-09-21 06:00:00 TS 17.5025 69.6111 main 358 355 O________OP___ jtwc_io IO041979 17.5000 69.6000 XX 25 -5 17.5000 69.6000 TC 25 17.5074 69.6331 1 8 320
1979259N11078 1979 89 NI AS NOT_NAMED 1979-09-21 09:00:00 TS 17.8236 69.3209 main 360 341 P________PP___ IO041979 17.8224 69.3150 XX 27 -5 17.8224 69.3150 TC 27 17.8258 69.3326 1 8 316
1979259N11078 1979 89 NI AS NOT_NAMED 1979-09-21 12:00:00 TS 18.1000 69.0000 main 346 343 O________OO___ jtwc_io IO041979 18.1000 69.0000 XX 30 -5 18.1000 69.0000 TC 30 18.1000 69.0000 1 8 306
1979259N11078 1979 89 NI AS NOT_NAMED 1979-09-21 15:00:00 TS 18.2756 68.6690 main 346 346 P________PP___ IO041979 18.2799 68.6649 XX 32 -5 18.2799 68.6649 TC 32 18.2668 68.6774 1 7 294
1979259N11078 1979 89 NI AS NOT_NAMED 1979-09-21 18:00:00 TS 18.3956 68.3080 main 361 361 O________OP___ jtwc_io IO041979 18.4000 68.3000 XX 35 -5 18.4000 68.3000 TC 35 18.3869 68.3239 1 7 287
1979259N11078 1979 89 NI AS NOT_NAMED 1979-09-21 21:00:00 TS 18.4911 67.9260 main 377 377 P________PP___ IO041979 18.4924 67.9223 XX 37 -5 18.4924 67.9223 TC 37 18.4885 67.9335 1 8 285
1979259N11078 1979 89 NI AS NOT_NAMED 1979-09-22 00:00:00 TS 18.6000 67.5000 main 397 397 O________OO___ jtwc_io IO041979 18.6000 67.5000 XX 40 -5 18.6000 67.5000 TC 40 18.6000 67.5000 2 9 289
1979259N11078 1979 89 NI AS NOT_NAMED 1979-09-22 03:00:00 TS 18.7887 67.0186 main 419 419 P________PP___ IO041979 18.7924 67.0226 XX 42 -5 18.7924 67.0226 TC 42 18.7812 67.0106 2 10 292
1979259N11078 1979 89 NI AS NOT_NAMED 1979-09-22 06:00:00 TS 18.9909 66.4936 main 442 442 O________OP___ jtwc_io IO041979 19.0000 66.5000 XX 45 -5 19.0000 66.5000 TC 45 18.9728 66.4808 2 11 290
1979259N11078 1979 89 NI AS NOT_NAMED 1979-09-22 09:00:00 TS 19.1660 65.9452 main 466 466 P________PP___ IO041979 19.1725 65.9500 XX 45 -5 19.1725 65.9500 TC 45 19.1530 65.9356 2 11 287
1979259N11078 1979 89 NI AS NOT_NAMED 1979-09-22 12:00:00 TS 19.3000 65.4000 main 494 494 O________OO___ jtwc_io IO041979 19.3000 65.4000 XX 45 -5 19.3000 65.4000 TC 45 19.3000 65.4000 4 10 282
1979259N11078 1979 89 NI AS NOT_NAMED 1979-09-22 15:00:00 TS 19.3729 64.8986 main 527 527 P________PP___ IO041979 19.3649 64.8848 XX 47 -5 19.3649 64.8848 TC 47 19.3891 64.9263 4 9 277
1979259N11078 1979 89 NI AS NOT_NAMED 1979-09-22 18:00:00 TS 19.4146 64.4214 main 568 530 O________OP___ jtwc_io IO041979 19.4000 64.4000 XX 50 -5 19.4000 64.4000 TC 50 19.4438 64.4643 4 9 276
1979259N11078 1979 89 NI AS NOT_NAMED 1979-09-22 21:00:00 TS 19.4586 63.9750 main 530 486 P________PP___ IO041979 19.4496 63.9649 XX 52 -5 19.4496 63.9649 TC 52 19.4766 63.9952 4 9 276
1979259N11078 1979 89 NI AS NOT_NAMED 1979-09-23 00:00:00 TS 19.5000 63.5000 main 486 431 O________OO___ jtwc_io IO041979 19.5000 63.5000 XX 55 -5 19.5000 63.5000 TC 55 19.5000 63.5000 4 10 275
1979259N11078 1979 89 NI AS NOT_NAMED 1979-09-23 03:00:00 TS 19.5507 62.9144 main 425 371 P________PP___ IO041979 19.5576 62.9151 XX 52 -5 19.5576 62.9151 TC 52 19.5369 62.9132 4 11 274
1979259N11078 1979 89 NI AS NOT_NAMED 1979-09-23 06:00:00 TS 19.5887 62.3017 main 371 320 O________OP___ jtwc_io IO041979 19.6000 62.3000 XX 50 -5 19.6000 62.3000 TC 50 19.5660 62.3050 4 11 273
1979259N11078 1979 89 NI AS NOT_NAMED 1979-09-23 09:00:00 TS 19.6007 61.7098 main 320 282 P________PP___ IO041979 19.6075 61.7049 XX 47 -5 19.6075 61.7049 TC 47 19.5870 61.7194 4 10 271
1979259N11078 1979 89 NI AS NOT_NAMED 1979-09-23 12:00:00 TS 19.6000 61.2000 main 282 260 O________OO___ jtwc_io IO041979 19.6000 61.2000 XX 45 -5 19.6000 61.2000 TC 45 19.6000 61.2000 2 8 270
1979259N11078 1979 89 NI AS NOT_NAMED 1979-09-23 15:00:00 TS 19.6032 60.8477 main 251 233 P________PP___ IO041979 19.5997 60.8700 XX 42 -5 19.5997 60.8700 TC 42 19.6102 60.8031 2 6 270
1979259N11078 1979 89 NI AS NOT_NAMED 1979-09-23 18:00:00 TS 19.6046 60.5583 main 233 198 O________OP___ jtwc_io IO041979 19.6000 60.6000 XX 40 -5 19.6000 60.6000 TC 40 19.6137 60.4750 2 6 270
1979259N11078 1979 89 NI AS NOT_NAMED 1979-09-23 21:00:00 TS 19.6035 60.2281 main 198 171 P________PP___ IO041979 19.6000 60.2500 XX 37 -5 19.6000 60.2500 TC 37 19.6104 60.1844 2 6 270
1979259N11078 1979 89 NI AS NOT_NAMED 1979-09-24 00:00:00 TS 19.6000 59.9000 main 171 145 O________OO___ jtwc_io IO041979 19.6000 59.9000 XX 35 -5 19.6000 59.9000 TC 35 19.6000 59.9000 2 6 269
1979259N11078 1979 89 NI AS NOT_NAMED 1979-09-24 03:00:00 TS 19.5921 59.5956 main 145 122 P________PP___ IO041979 19.6074 59.6000 XX 32 -5 19.6074 59.6000 TC 32 19.5615 59.5868 2 6 267
1979259N11078 1979 89 NI AS NOT_NAMED 1979-09-24 06:00:00 TS 19.5732 59.2906 main 122 107 O________OP___ jtwc_io IO041979 19.6000 59.3000 XX 30 -5 19.6000 59.3000 TC 30 19.5195 59.2719 2 6 264
1979259N11078 1979 89 NI AS NOT_NAMED 1979-09-24 09:00:00 TS 19.5259 58.9536 main 109 91 P________PP___ IO041979 19.5425 58.9574 XX 30 -5 19.5425 58.9574 TC 30 19.4927 58.9461 2 7 264
1979259N11078 1979 89 NI AS NOT_NAMED 1979-09-24 12:00:00 TS 19.5000 58.6000 main 91 62 O________OO___ jtwc_io IO041979 19.5000 58.6000 XX 30 -5 19.5000 58.6000 TC 30 19.5000 58.6000 1 7 270
1979259N11078 1979 89 NI AS NOT_NAMED 1979-09-24 15:00:00 TS 19.5314 58.2522 main 62 20 P________PP___ IO041979 19.5198 58.2649 XX 27 -5 19.5198 58.2649 TC 27 19.5546 58.2269 1 7 280
1979259N11078 1979 89 NI AS NOT_NAMED 1979-09-24 18:00:00 TS 19.6162 57.8770 main 20 0 O________OP___ jtwc_io IO041979 19.6000 57.9000 XX 25 -5 19.6000 57.9000 TC 25 19.6485 57.8310 1 8 286
1979259N11078 1979 89 NI AS NOT_NAMED 1979-09-24 21:00:00 TS 19.7462 57.4534 main 0 0 P________PP___ IO041979 19.7353 57.4702 XX 22 -5 19.7353 57.4702 TC 22 19.7681 57.4196 1 9 289
1979259N11078 1979 89 NI AS NOT_NAMED 1979-09-25 00:00:00 TS 19.9000 57.0000 main 0 O________OO___ jtwc_io IO041979 19.9000 57.0000 XX 20 -5 19.9000 57.0000 TC 20 19.9000 57.0000 1 9 290

About IBTrACS Database

This database is a web-friendly format of International Best Track Archive for Climate Stewardship (IBTrACS), a global best track data archive curated by NOAA dating back to 1842.

Updated: 2021-10-08